Time;durP1;ratioP1;P1;durP2;ratioP2;P2;SDS_P1;SDS_P2;PMS_P1;PMS_P2;Temp;Humidity;BMP_temperature;BMP_pressure;BME280_temperature;BME280_humidity;BME280_pressure;Samples;Min_cycle;Max_cycle;Signal;HPM_P1;HPM_P2
2021/08/23 00:02:22;;;;;;;5.87;3.37;;;16.80;93.30;;;;;;5052140;28;20216;-75
2021/08/23 00:04:48;;;;;;;4.70;3.13;;;16.90;92.90;;;;;;5057699;28;20204;-76
2021/08/23 00:07:13;;;;;;;6.20;3.30;;;16.90;92.80;;;;;;5054066;28;20317;-75
2021/08/23 00:09:39;;;;;;;8.60;3.80;;;16.90;92.60;;;;;;5045881;28;20258;-76
2021/08/23 00:12:05;;;;;;;5.97;3.87;;;16.90;92.30;;;;;;5043857;28;20713;-76
2021/08/23 00:14:31;;;;;;;6.20;3.67;;;16.90;92.20;;;;;;5042313;28;20183;-76
2021/08/23 00:16:56;;;;;;;7.50;4.70;;;16.80;92.30;;;;;;5042760;28;20787;-75
2021/08/23 00:19:22;;;;;;;7.20;3.60;;;16.80;92.60;;;;;;5047048;28;20287;-76
2021/08/23 00:22:00;;;;;;;6.13;3.77;;;16.80;92.70;;;;;;5040475;28;20601;-76
2021/08/23 00:24:26;;;;;;;10.97;4.10;;;16.80;92.50;;;;;;5047796;28;20465;-77
2021/08/23 00:26:55;;;;;;;6.90;3.90;;;16.80;92.70;;;;;;5043967;28;20937;-76
2021/08/23 00:29:22;;;;;;;7.40;3.90;;;16.80;92.80;;;;;;5045700;28;20452;-76
2021/08/23 00:31:48;;;;;;;6.07;3.60;;;16.80;92.50;;;;;;5037176;28;21287;-75
2021/08/23 00:34:14;;;;;;;5.43;3.40;;;16.80;92.50;;;;;;5043172;28;20797;-75
2021/08/23 00:36:41;;;;;;;6.70;3.70;;;16.80;92.70;;;;;;5040103;28;20453;-77
2021/08/23 00:39:14;;;;;;;6.77;3.50;;;16.80;92.80;;;;;;5044745;28;20418;-77
2021/08/23 00:41:41;;;;;;;7.17;3.90;;;16.80;92.70;;;;;;5039347;28;20472;-77
2021/08/23 00:44:07;;;;;;;6.20;3.60;;;16.80;92.70;;;;;;5042795;28;20435;-76
2021/08/23 00:46:34;;;;;;;9.57;3.57;;;16.80;92.70;;;;;;5045702;28;20430;-78
2021/08/23 00:49:00;;;;;;;8.13;4.30;;;16.90;92.40;;;;;;5040957;28;20913;-76
2021/08/23 00:51:26;;;;;;;6.57;3.30;;;16.90;92.10;;;;;;5044480;28;20528;-75
2021/08/23 00:53:52;;;;;;;9.97;3.57;;;16.80;92.10;;;;;;5037584;28;20438;-75
2021/08/23 00:56:20;;;;;;;5.90;3.70;;;16.90;92.00;;;;;;5041081;28;20443;-76
2021/08/23 00:58:52;;;;;;;6.77;4.30;;;16.90;92.00;;;;;;5040030;28;20188;-76
2021/08/23 01:01:30;;;;;;;5.37;3.50;;;16.80;92.10;;;;;;5046769;28;20475;-76
2021/08/23 01:04:03;;;;;;;6.83;3.63;;;16.90;92.30;;;;;;5049264;28;20430;-75
2021/08/23 01:06:30;;;;;;;5.80;3.70;;;16.90;91.60;;;;;;5034471;28;21004;-76
2021/08/23 01:09:01;;;;;;;4.93;3.50;;;16.90;91.70;;;;;;5049697;28;20434;-76
2021/08/23 01:11:29;;;;;;;7.03;3.57;;;16.90;92.00;;;;;;5049162;28;20456;-75
2021/08/23 01:13:54;;;;;;;7.17;4.23;;;17.00;92.00;;;;;;5049265;28;20794;-76
2021/08/23 01:16:20;;;;;;;4.47;3.33;;;16.90;91.80;;;;;;5049610;28;20426;-76
2021/08/23 01:18:46;;;;;;;7.73;3.60;;;17.00;91.90;;;;;;5049560;28;20188;-75
2021/08/23 01:21:18;;;;;;;4.27;3.00;;;16.90;92.00;;;;;;5049250;28;20482;-75
2021/08/23 01:23:47;;;;;;;7.33;4.07;;;17.00;91.50;;;;;;5048927;28;21203;-76
2021/08/23 01:26:22;;;;;;;5.43;3.53;;;17.00;91.60;;;;;;5047937;28;20466;-75
2021/08/23 01:29:14;;;;;;;5.60;3.60;;;16.90;91.60;;;;;;5042910;28;20444;-76
2021/08/23 01:32:11;;;;;;;7.73;3.20;;;16.90;92.00;;;;;;5049370;28;20944;-75
2021/08/23 01:34:37;;;;;;;6.83;4.23;;;17.00;91.60;;;;;;5053216;28;20430;-76
2021/08/23 01:37:04;;;;;;;5.90;3.30;;;17.00;91.70;;;;;;5050179;28;20518;-76
2021/08/23 01:39:32;;;;;;;7.37;3.10;;;16.80;91.80;;;;;;5046172;28;20906;-76
2021/08/23 01:41:59;;;;;;;10.67;3.67;;;16.80;92.10;;;;;;5044475;28;20756;-76
2021/08/23 01:44:25;;;;;;;7.50;3.70;;;16.80;92.10;;;;;;5049028;28;20444;-76
2021/08/23 01:46:50;;;;;;;6.40;3.53;;;16.80;92.00;;;;;;5049636;28;20525;-76
2021/08/23 01:49:16;;;;;;;5.27;3.30;;;16.80;92.10;;;;;;5049598;28;20439;-76
2021/08/23 01:51:42;;;;;;;7.60;3.57;;;16.70;92.70;;;;;;5048875;28;20213;-75
2021/08/23 01:54:08;;;;;;;6.60;3.40;;;16.70;92.80;;;;;;5048801;28;20202;-75
2021/08/23 01:56:33;;;;;;;5.20;3.80;;;16.80;92.90;;;;;;5048460;28;20184;-77
2021/08/23 01:59:00;;;;;;;6.77;3.63;;;16.80;93.00;;;;;;5039697;28;20255;-77
2021/08/23 02:01:27;;;;;;;6.73;4.23;;;16.80;93.00;;;;;;5043036;28;20208;-76
2021/08/23 02:03:52;;;;;;;7.20;3.50;;;16.70;93.10;;;;;;5046650;28;20870;-75
2021/08/23 02:06:18;;;;;;;7.57;3.90;;;16.80;93.10;;;;;;5041341;28;20436;-76
2021/08/23 02:08:44;;;;;;;4.30;3.13;;;16.80;92.90;;;;;;5047525;28;20224;-76
2021/08/23 02:11:11;;;;;;;5.90;3.97;;;16.80;92.90;;;;;;5047917;28;20205;-77
2021/08/23 02:13:37;;;;;;;9.57;3.60;;;16.80;92.80;;;;;;5046269;28;20461;-75
2021/08/23 02:16:03;;;;;;;5.40;3.60;;;16.80;92.80;;;;;;5045223;28;20430;-76
2021/08/23 02:18:28;;;;;;;6.47;4.27;;;16.80;93.20;;;;;;5044032;28;20543;-76
2021/08/23 02:20:54;;;;;;;7.23;3.70;;;16.70;93.20;;;;;;5046330;28;20905;-76
2021/08/23 02:23:20;;;;;;;8.10;3.23;;;16.70;93.10;;;;;;5042300;28;20195;-76
2021/08/23 02:25:46;;;;;;;4.80;3.30;;;16.70;93.40;;;;;;5040344;28;20184;-75
2021/08/23 02:28:11;;;;;;;7.50;3.90;;;16.70;93.00;;;;;;5042672;28;20187;-76
2021/08/23 02:30:38;;;;;;;6.60;3.20;;;16.70;93.10;;;;;;5046149;28;20195;-76
2021/08/23 02:33:04;;;;;;;4.43;2.87;;;16.70;93.20;;;;;;5038868;28;20214;-75
2021/08/23 02:35:30;;;;;;;9.03;3.33;;;16.70;93.10;;;;;;5042657;28;20437;-77
2021/08/23 02:37:56;;;;;;;6.30;3.40;;;16.60;93.10;;;;;;5046140;28;20408;-76
2021/08/23 02:40:22;;;;;;;5.13;2.97;;;16.70;93.20;;;;;;5040766;28;20417;-76
2021/08/23 02:42:48;;;;;;;5.80;3.07;;;16.70;93.10;;;;;;5050809;28;20437;-76
2021/08/23 02:45:14;;;;;;;7.17;4.00;;;16.70;93.20;;;;;;5051997;28;20780;-76
2021/08/23 02:47:40;;;;;;;5.20;2.90;;;16.70;93.10;;;;;;5045366;28;20271;-76
2021/08/23 02:50:08;;;;;;;5.23;3.37;;;16.60;93.20;;;;;;5049573;28;20257;-76
2021/08/23 02:52:35;;;;;;;4.50;3.27;;;16.60;93.30;;;;;;5044264;28;20440;-76
2021/08/23 02:55:02;;;;;;;5.87;3.50;;;16.70;93.30;;;;;;5049902;28;20426;-75
2021/08/23 02:57:28;;;;;;;6.90;3.03;;;16.60;93.40;;;;;;5043031;28;21067;-74
2021/08/23 02:59:54;;;;;;;7.07;3.63;;;16.60;93.30;;;;;;5049248;28;20431;-76
2021/08/23 03:02:20;;;;;;;4.20;3.10;;;16.50;93.50;;;;;;5047915;28;20516;-76
2021/08/23 03:04:46;;;;;;;5.77;2.80;;;16.50;93.70;;;;;;5053859;28;20416;-76
2021/08/23 03:07:11;;;;;;;6.57;3.10;;;16.50;93.70;;;;;;5046009;28;20193;-75
2021/08/23 03:09:37;;;;;;;6.13;3.80;;;16.50;93.60;;;;;;5052873;28;20187;-76
2021/08/23 03:12:03;;;;;;;4.13;3.00;;;16.60;93.60;;;;;;5051808;28;20782;-76
2021/08/23 03:14:29;;;;;;;4.87;3.00;;;16.60;93.50;;;;;;5051155;28;20427;-75
2021/08/23 03:16:55;;;;;;;3.93;2.67;;;16.60;93.30;;;;;;5048579;28;20420;-77
2021/08/23 03:19:21;;;;;;;7.03;3.30;;;16.60;93.40;;;;;;5050371;28;20187;-76
2021/08/23 03:21:46;;;;;;;4.80;3.27;;;16.60;93.50;;;;;;5049374;28;20711;-76
2021/08/23 03:24:12;;;;;;;7.50;3.17;;;16.60;93.60;;;;;;5051041;28;20192;-76
2021/08/23 03:26:39;;;;;;;6.10;3.27;;;16.60;93.60;;;;;;5048049;28;20185;-75
2021/08/23 03:29:05;;;;;;;7.40;3.43;;;16.70;93.30;;;;;;5045817;28;20653;-76
2021/08/23 03:31:31;;;;;;;7.20;3.30;;;16.70;93.20;;;;;;5043119;28;20451;-77
2021/08/23 03:33:57;;;;;;;7.50;3.53;;;16.60;93.30;;;;;;5045183;28;20942;-76
2021/08/23 03:36:23;;;;;;;5.20;2.93;;;16.50;93.30;;;;;;5043812;28;20456;-75
2021/08/23 03:38:49;;;;;;;5.40;3.37;;;16.60;93.60;;;;;;5051994;28;20270;-75
2021/08/23 03:41:16;;;;;;;4.67;2.87;;;16.60;93.50;;;;;;5044016;28;20219;-76
2021/08/23 03:43:42;;;;;;;6.60;3.80;;;16.70;93.60;;;;;;5050679;28;20786;-76
2021/08/23 03:46:07;;;;;;;5.70;3.50;;;16.70;93.60;;;;;;5050932;28;20427;-75
2021/08/23 03:48:33;;;;;;;7.17;4.17;;;16.70;93.70;;;;;;5052356;28;20827;-75
2021/08/23 03:50:59;;;;;;;5.97;3.60;;;16.70;93.80;;;;;;5049686;28;20598;-76
2021/08/23 03:53:25;;;;;;;6.67;3.87;;;16.70;93.60;;;;;;5049742;28;20187;-76
2021/08/23 03:55:51;;;;;;;6.47;3.47;;;16.60;93.80;;;;;;5042287;28;20193;-79
2021/08/23 03:58:16;;;;;;;4.43;3.40;;;16.60;94.10;;;;;;5043797;28;20194;-78
2021/08/23 04:00:43;;;;;;;5.80;3.83;;;16.70;93.90;;;;;;5052213;28;21267;-78
2021/08/23 04:03:09;;;;;;;8.40;3.33;;;16.60;93.90;;;;;;5051689;28;20249;-77
2021/08/23 04:05:34;;;;;;;5.10;3.57;;;16.60;93.90;;;;;;5050192;28;20434;-76
2021/08/23 04:08:00;;;;;;;8.17;3.93;;;16.60;93.80;;;;;;5048714;28;20514;-76
2021/08/23 04:10:26;;;;;;;5.40;3.47;;;16.50;93.80;;;;;;5048507;28;20264;-79
2021/08/23 04:12:51;;;;;;;6.37;3.60;;;16.50;94.00;;;;;;5045178;28;20237;-80
2021/08/23 04:15:17;;;;;;;7.70;3.60;;;16.50;94.20;;;;;;5051976;28;20184;-79
2021/08/23 04:17:43;;;;;;;4.57;3.47;;;16.60;94.40;;;;;;5052556;28;20184;-77
2021/08/23 04:20:09;;;;;;;5.80;3.70;;;16.60;94.30;;;;;;5044653;28;20194;-77
2021/08/23 04:22:35;;;;;;;4.60;3.10;;;16.60;94.00;;;;;;5051443;28;20211;-79
2021/08/23 04:25:00;;;;;;;5.33;3.33;;;16.60;93.90;;;;;;5050174;28;20510;-79
2021/08/23 04:27:26;;;;;;;9.13;4.63;;;16.60;93.40;;;;;;5044719;28;20672;-78
2021/08/23 04:29:52;;;;;;;7.33;3.63;;;16.60;93.70;;;;;;5049436;28;20192;-77
2021/08/23 04:32:18;;;;;;;4.80;3.00;;;16.60;93.60;;;;;;5042729;28;20220;-77
2021/08/23 04:34:43;;;;;;;11.40;4.73;;;16.60;93.80;;;;;;5048690;28;20660;-78
2021/08/23 04:37:09;;;;;;;4.30;3.30;;;16.60;93.80;;;;;;5048946;28;20196;-77
2021/08/23 04:39:35;;;;;;;5.23;3.70;;;16.60;93.90;;;;;;5048332;28;20186;-77
2021/08/23 04:42:01;;;;;;;7.53;3.43;;;16.60;93.80;;;;;;5049565;28;20220;-76
2021/08/23 04:44:27;;;;;;;5.60;2.80;;;16.60;93.90;;;;;;5043610;28;20191;-78
2021/08/23 04:46:53;;;;;;;9.30;3.43;;;16.70;93.80;;;;;;5045355;28;20422;-79
2021/08/23 04:49:19;;;;;;;7.63;3.67;;;16.70;93.60;;;;;;5045847;28;20480;-76
2021/08/23 04:51:45;;;;;;;5.83;3.10;;;16.70;93.60;;;;;;5048738;28;20216;-78
2021/08/23 04:54:11;;;;;;;8.70;3.67;;;16.60;93.70;;;;;;5041815;28;20446;-78
2021/08/23 04:56:36;;;;;;;6.10;3.37;;;16.60;93.80;;;;;;5052698;28;20423;-77
2021/08/23 04:59:03;;;;;;;4.93;3.30;;;16.70;94.30;;;;;;5040104;28;20195;-76
2021/08/23 05:01:29;;;;;;;6.53;3.83;;;16.70;94.40;;;;;;5039557;28;20220;-79
2021/08/23 05:03:54;;;;;;;6.30;3.80;;;16.60;94.50;;;;;;5047637;28;20511;-77
2021/08/23 05:06:20;;;;;;;7.30;3.63;;;16.60;94.80;;;;;;5043855;28;20514;-77
2021/08/23 05:08:46;;;;;;;4.20;3.30;;;16.50;95.40;;;;;;5047433;28;20600;-77
2021/08/23 05:11:11;;;;;;;6.70;3.23;;;16.40;95.60;;;;;;5040683;28;20206;-78
2021/08/23 05:13:37;;;;;;;8.53;3.83;;;16.40;95.70;;;;;;5046301;28;20197;-76
2021/08/23 05:16:03;;;;;;;7.30;3.40;;;16.40;95.60;;;;;;5047233;28;20560;-76
2021/08/23 05:18:29;;;;;;;6.50;3.20;;;16.40;95.70;;;;;;5043435;28;20558;-76
2021/08/23 05:20:58;;;;;;;7.00;3.60;;;16.40;95.60;;;;;;5044882;28;20467;-77
2021/08/23 05:23:23;;;;;;;5.07;3.23;;;16.40;95.90;;;;;;5044741;28;20422;-75
2021/08/23 05:25:49;;;;;;;6.40;3.57;;;16.40;96.00;;;;;;5048747;28;20480;-78
2021/08/23 05:28:15;;;;;;;5.40;3.60;;;16.40;95.80;;;;;;5044781;28;20204;-78
2021/08/23 05:30:40;;;;;;;5.70;3.50;;;16.40;96.10;;;;;;5052220;28;20180;-77
2021/08/23 05:33:06;;;;;;;5.97;3.80;;;16.40;96.60;;;;;;5043684;28;20548;-78
2021/08/23 05:35:32;;;;;;;8.83;3.93;;;16.50;96.70;;;;;;5049592;28;20246;-77
2021/08/23 05:37:57;;;;;;;5.83;3.50;;;16.50;96.30;;;;;;5052149;28;20668;-78
2021/08/23 05:40:24;;;;;;;7.90;4.00;;;16.50;96.10;;;;;;5040248;28;20206;-78
2021/08/23 05:42:50;;;;;;;7.50;3.77;;;16.60;95.60;;;;;;5048457;28;20205;-77
2021/08/23 05:45:17;;;;;;;5.97;3.73;;;16.60;95.20;;;;;;5054917;28;20445;-78
2021/08/23 05:47:42;;;;;;;6.53;3.40;;;16.50;95.10;;;;;;5054811;28;20446;-79
2021/08/23 05:50:09;;;;;;;5.97;3.33;;;16.50;95.50;;;;;;5053523;28;20423;-78
2021/08/23 05:52:35;;;;;;;5.93;3.60;;;16.60;95.70;;;;;;5046293;28;20214;-78
2021/08/23 05:55:01;;;;;;;7.37;3.53;;;16.60;95.30;;;;;;5047493;28;20811;-78
2021/08/23 05:57:27;;;;;;;8.97;3.83;;;16.60;95.60;;;;;;5053512;28;20207;-78
2021/08/23 05:59:54;;;;;;;7.53;3.90;;;16.70;95.80;;;;;;5050908;28;20199;-78
2021/08/23 06:02:19;;;;;;;10.37;3.93;;;16.70;96.10;;;;;;5055465;28;20474;-78
2021/08/23 06:04:45;;;;;;;7.87;3.23;;;16.80;95.60;;;;;;5052950;28;20427;-78
2021/08/23 06:07:11;;;;;;;5.43;3.70;;;16.90;95.60;;;;;;5051732;28;20191;-77
2021/08/23 06:09:37;;;;;;;7.90;4.30;;;17.00;95.00;;;;;;5053904;28;20209;-76
2021/08/23 06:12:03;;;;;;;6.57;3.70;;;17.20;94.60;;;;;;5045358;28;20216;-77
2021/08/23 06:14:28;;;;;;;6.93;3.57;;;17.30;94.00;;;;;;5048008;28;20198;-77
2021/08/23 06:16:54;;;;;;;6.07;3.70;;;17.40;93.80;;;;;;5058281;28;20873;-78
2021/08/23 06:19:20;;;;;;;9.73;3.57;;;17.40;93.40;;;;;;5053950;28;20259;-77
2021/08/23 06:21:46;;;;;;;4.90;3.10;;;17.60;93.00;;;;;;5050736;28;20213;-77
2021/08/23 06:24:12;;;;;;;6.53;3.30;;;17.50;92.60;;;;;;5054793;28;20195;-77
2021/08/23 06:26:38;;;;;;;8.73;4.07;;;17.50;92.20;;;;;;5052817;28;20218;-76
2021/08/23 06:29:03;;;;;;;7.13;3.93;;;17.50;92.60;;;;;;5052631;28;20437;-76
2021/08/23 06:31:29;;;;;;;13.30;4.13;;;17.50;92.90;;;;;;5048980;28;20286;-78
2021/08/23 06:33:55;;;;;;;8.30;3.77;;;17.60;92.50;;;;;;5050312;28;20515;-77
2021/08/23 06:36:21;;;;;;;9.20;3.93;;;17.70;92.20;;;;;;5050692;28;20284;-77
2021/08/23 06:38:46;;;;;;;4.30;3.27;;;17.70;92.00;;;;;;5053647;28;20185;-77
2021/08/23 06:41:20;;;;;;;8.00;4.33;;;17.80;92.30;;;;;;5047265;28;20219;-78
2021/08/23 06:43:47;;;;;;;6.80;3.47;;;17.90;92.30;;;;;;5051288;28;20196;-77
2021/08/23 06:46:15;;;;;;;10.53;3.67;;;17.80;92.00;;;;;;5055552;28;20950;-78
2021/08/23 06:48:40;;;;;;;7.73;3.87;;;17.90;91.30;;;;;;5049948;28;20415;-77
2021/08/23 06:51:06;;;;;;;5.47;3.67;;;18.00;91.40;;;;;;5049914;28;20440;-78
2021/08/23 06:53:32;;;;;;;10.53;4.03;;;18.00;91.50;;;;;;5056124;28;20600;-79
2021/08/23 06:55:58;;;;;;;7.17;3.80;;;18.00;91.40;;;;;;5048885;28;20191;-77
2021/08/23 06:58:23;;;;;;;4.30;3.17;;;18.10;91.40;;;;;;5047247;28;20245;-77
2021/08/23 07:00:49;;;;;;;6.33;3.03;;;18.20;90.90;;;;;;5047979;28;20213;-78
2021/08/23 07:03:15;;;;;;;6.40;4.00;;;18.30;90.90;;;;;;5052048;28;20273;-78
2021/08/23 07:05:41;;;;;;;5.73;3.60;;;18.30;90.10;;;;;;5048276;28;20207;-77
2021/08/23 07:08:06;;;;;;;4.70;3.63;;;18.30;90.50;;;;;;5051268;28;20189;-77
2021/08/23 07:10:33;;;;;;;8.80;4.20;;;18.40;90.40;;;;;;5044678;28;20177;-77
2021/08/23 07:12:59;;;;;;;4.37;3.07;;;18.50;90.20;;;;;;5045012;28;20337;-76
2021/08/23 07:15:25;;;;;;;4.00;3.33;;;18.40;90.30;;;;;;5052607;28;20539;-77
2021/08/23 07:17:51;;;;;;;8.03;3.33;;;18.20;90.40;;;;;;5049193;28;20857;-77
2021/08/23 07:20:16;;;;;;;6.90;3.80;;;18.10;91.20;;;;;;5043795;28;20206;-78
2021/08/23 07:22:42;;;;;;;8.13;3.47;;;18.00;91.30;;;;;;5048943;28;20293;-76
2021/08/23 07:25:08;;;;;;;8.47;3.80;;;18.00;91.50;;;;;;5050665;28;20179;-78
2021/08/23 07:27:35;;;;;;;11.97;3.87;;;18.00;91.50;;;;;;5048192;28;20177;-79
2021/08/23 07:30:02;;;;;;;8.33;3.90;;;18.00;91.50;;;;;;5048292;28;20474;-78
2021/08/23 07:32:27;;;;;;;7.30;3.70;;;18.00;91.50;;;;;;5046182;28;20466;-78
2021/08/23 07:34:53;;;;;;;9.43;3.20;;;18.00;91.60;;;;;;5046008;28;20427;-77
2021/08/23 07:37:19;;;;;;;15.50;4.20;;;18.10;91.20;;;;;;5043118;28;20232;-78
2021/08/23 07:39:45;;;;;;;6.50;3.23;;;18.10;91.10;;;;;;5044521;28;20191;-76
2021/08/23 07:42:12;;;;;;;8.63;3.60;;;18.20;91.20;;;;;;5047708;28;20820;-76
2021/08/23 07:44:37;;;;;;;7.33;3.43;;;18.30;91.30;;;;;;5045187;28;20444;-75
2021/08/23 07:47:04;;;;;;;7.23;3.77;;;18.50;90.10;;;;;;5048224;28;20421;-76
2021/08/23 07:49:31;;;;;;;6.40;3.60;;;18.60;89.30;;;;;;5052556;28;20185;-77
2021/08/23 07:51:56;;;;;;;5.00;3.60;;;18.90;88.90;;;;;;5049186;28;21170;-78
2021/08/23 07:54:22;;;;;;;7.13;3.77;;;19.10;88.60;;;;;;5050162;28;20416;-77
2021/08/23 07:56:48;;;;;;;6.37;3.43;;;19.20;86.60;;;;;;5049149;28;20235;-77
2021/08/23 07:59:13;;;;;;;7.70;3.43;;;19.40;85.90;;;;;;5045383;28;20193;-78
2021/08/23 08:01:40;;;;;;;7.20;3.60;;;19.40;85.90;;;;;;5046414;28;20217;-77
2021/08/23 08:04:05;;;;;;;5.33;3.07;;;19.50;84.90;;;;;;5048212;28;20188;-77
2021/08/23 08:06:31;;;;;;;5.63;3.33;;;19.40;84.70;;;;;;5054587;28;20795;-79
2021/08/23 08:08:57;;;;;;;9.40;3.87;;;19.20;84.70;;;;;;5049649;28;20179;-76
2021/08/23 08:11:22;;;;;;;6.60;4.00;;;19.00;85.50;;;;;;5046613;28;20213;-78
2021/08/23 08:13:48;;;;;;;7.37;3.77;;;18.90;86.30;;;;;;5049044;28;20246;-77
2021/08/23 08:16:14;;;;;;;7.30;3.70;;;18.90;86.50;;;;;;5050953;28;20181;-78
2021/08/23 08:18:40;;;;;;;10.80;4.30;;;18.90;86.80;;;;;;5043756;28;20179;-78
2021/08/23 08:21:06;;;;;;;7.20;3.87;;;18.90;87.10;;;;;;5048524;28;20216;-75
2021/08/23 08:23:32;;;;;;;5.90;3.47;;;18.90;87.10;;;;;;5047326;28;20325;-79
2021/08/23 08:25:58;;;;;;;5.70;3.13;;;19.00;84.90;;;;;;5050906;28;20429;-78
2021/08/23 08:28:23;;;;;;;7.27;3.73;;;18.90;84.30;;;;;;5046180;28;20425;-79
2021/08/23 08:30:49;;;;;;;5.67;3.87;;;18.90;84.60;;;;;;5048179;28;20512;-79
2021/08/23 08:33:15;;;;;;;9.37;3.80;;;19.00;85.50;;;;;;5042847;28;20191;-78
2021/08/23 08:35:42;;;;;;;6.83;3.07;;;18.90;84.00;;;;;;5047453;28;20584;-77
2021/08/23 08:38:08;;;;;;;7.20;3.13;;;18.90;83.60;;;;;;5052286;28;20435;-76
2021/08/23 08:40:34;;;;;;;6.60;3.60;;;18.90;84.00;;;;;;5051997;28;21243;-79
2021/08/23 08:43:00;;;;;;;4.73;3.50;;;18.90;84.60;;;;;;5052018;28;20528;-76
2021/08/23 08:45:30;;;;;;;6.47;3.90;;;18.80;84.70;;;;;;5052822;28;20174;-78
2021/08/23 08:48:00;;;;;;;7.07;3.17;;;18.80;85.00;;;;;;5045169;28;20436;-76
2021/08/23 08:50:27;;;;;;;5.70;3.20;;;18.80;85.70;;;;;;5052161;28;20409;-77
2021/08/23 08:52:53;;;;;;;5.10;3.47;;;18.90;85.60;;;;;;5040905;28;21015;-79
2021/08/23 08:55:19;;;;;;;4.90;3.20;;;19.00;84.30;;;;;;5047767;28;20459;-78
2021/08/23 08:57:45;;;;;;;5.43;3.23;;;19.00;84.30;;;;;;5041127;28;20217;-77
2021/08/23 09:00:11;;;;;;;3.70;2.90;;;19.20;84.40;;;;;;5049430;28;20279;-76
2021/08/23 09:02:37;;;;;;;4.23;3.00;;;19.40;83.60;;;;;;5045521;28;20465;-75
2021/08/23 09:05:23;;;;;;;9.00;4.00;;;19.60;83.60;;;;;;5048798;28;20423;-76
2021/08/23 09:07:51;;;;;;;7.77;3.77;;;19.80;81.70;;;;;;5049132;28;20748;-76
2021/08/23 09:10:22;;;;;;;6.67;3.50;;;20.00;81.80;;;;;;5050883;28;20415;-77
2021/08/23 09:13:16;;;;;;;8.00;3.93;;;20.00;82.10;;;;;;5056140;28;20515;-78
2021/08/23 09:15:56;;;;;;;5.20;3.37;;;20.00;80.90;;;;;;5056465;28;20759;-77
2021/08/23 09:18:24;;;;;;;6.50;3.40;;;20.30;80.50;;;;;;5050818;28;20905;-77
2021/08/23 09:20:56;;;;;;;5.93;3.50;;;20.30;80.20;;;;;;5057845;28;20448;-74
2021/08/23 09:23:33;;;;;;;6.37;3.70;;;20.50;80.80;;;;;;5060714;28;20494;-75
2021/08/23 09:26:31;;;;;;;5.40;3.80;;;20.50;79.00;;;;;;5064286;28;20423;-74
2021/08/23 09:28:59;;;;;;;6.90;3.73;;;20.30;79.90;;;;;;5058731;28;20435;-74
2021/08/23 09:31:27;;;;;;;5.90;3.57;;;20.20;79.90;;;;;;5058205;28;20454;-76
2021/08/23 09:33:56;;;;;;;11.40;3.97;;;20.30;80.00;;;;;;5050275;28;20431;-75
2021/08/23 09:36:21;;;;;;;5.20;3.00;;;20.30;79.70;;;;;;5050065;28;20448;-76
2021/08/23 09:38:57;;;;;;;6.80;4.00;;;20.30;79.20;;;;;;5047812;28;20429;-76
2021/08/23 09:41:24;;;;;;;7.90;3.73;;;20.50;79.30;;;;;;5048477;28;20251;-76
2021/08/23 09:44:08;;;;;;;6.43;3.87;;;20.50;79.50;;;;;;5050722;28;20423;-75
2021/08/23 09:46:35;;;;;;;9.53;4.03;;;20.50;79.20;;;;;;5039905;28;20410;-77
2021/08/23 09:49:03;;;;;;;5.60;3.67;;;20.30;78.90;;;;;;5042442;28;20886;-75
2021/08/23 09:51:39;;;;;;;7.10;3.70;;;20.40;79.50;;;;;;5039613;28;20446;-77
2021/08/23 09:54:10;;;;;;;5.80;3.90;;;20.50;78.70;;;;;;5043407;28;20551;-75
2021/08/23 09:56:55;;;;;;;5.80;4.00;;;20.20;79.90;;;;;;5048699;28;20419;-76
2021/08/23 09:59:23;;;;;;;7.47;3.93;;;20.10;80.30;;;;;;5042800;28;20427;-76
2021/08/23 10:01:50;;;;;;;7.63;3.80;;;20.00;81.20;;;;;;5049095;28;20512;-76
2021/08/23 10:04:18;;;;;;;6.30;3.83;;;20.10;81.10;;;;;;5050407;28;20919;-77
2021/08/23 10:06:46;;;;;;;8.50;4.90;;;20.40;80.90;;;;;;5047958;28;20472;-76
2021/08/23 10:09:23;;;;;;;8.13;5.00;;;20.40;81.20;;;;;;5053576;28;20486;-78
2021/08/23 10:11:58;;;;;;;6.67;4.33;;;20.10;83.40;;;;;;5054851;28;20561;-75
2021/08/23 10:14:25;;;;;;;8.83;4.67;;;19.80;84.70;;;;;;5051400;28;20507;-75
2021/08/23 10:16:51;;;;;;;10.27;5.13;;;19.80;85.20;;;;;;5055777;28;21005;-76
2021/08/23 10:19:17;;;;;;;11.33;5.07;;;19.90;85.00;;;;;;5038402;28;20787;-75
2021/08/23 10:21:48;;;;;;;9.47;5.87;;;19.90;85.50;;;;;;5055851;28;20471;-76
2021/08/23 10:24:41;;;;;;;8.67;4.53;;;19.80;85.70;;;;;;5055594;28;20177;-76
2021/08/23 10:27:07;;;;;;;9.10;4.50;;;19.70;86.20;;;;;;5046987;28;20481;-75
2021/08/23 10:29:40;;;;;;;10.00;4.90;;;19.80;86.20;;;;;;5059627;28;20419;-78
2021/08/23 10:32:10;;;;;;;5.53;3.90;;;20.00;85.20;;;;;;5058065;28;20466;-75
2021/08/23 10:34:38;;;;;;;6.27;4.13;;;19.90;83.80;;;;;;5056377;28;20434;-75
2021/08/23 10:37:19;;;;;;;6.57;3.73;;;19.90;83.70;;;;;;5055113;28;20487;-75
2021/08/23 10:39:45;;;;;;;6.67;4.33;;;20.00;83.70;;;;;;5054195;28;20584;-75
2021/08/23 10:42:12;;;;;;;6.00;4.10;;;20.20;83.30;;;;;;5053931;28;20558;-76
2021/08/23 10:44:38;;;;;;;5.33;3.87;;;20.40;82.10;;;;;;5048204;28;20184;-74
2021/08/23 10:47:08;;;;;;;4.93;3.87;;;20.30;81.10;;;;;;5041886;28;20430;-76
2021/08/23 10:49:46;;;;;;;6.30;3.80;;;20.00;81.80;;;;;;5051941;28;20185;-75
2021/08/23 10:52:17;;;;;;;7.50;4.10;;;20.30;82.10;;;;;;5048189;28;20430;-76
2021/08/23 10:54:46;;;;;;;5.10;3.80;;;20.60;81.20;;;;;;5044129;28;20419;-75
2021/08/23 10:57:18;;;;;;;7.23;4.10;;;20.70;79.60;;;;;;5044665;28;20436;-74
2021/08/23 10:59:48;;;;;;;3.40;3.00;;;20.80;80.30;;;;;;5046353;28;20436;-76
2021/08/23 11:02:15;;;;;;;7.17;4.23;;;20.90;79.30;;;;;;5050470;28;20468;-75
2021/08/23 11:04:54;;;;;;;3.60;3.20;;;21.10;79.30;;;;;;5051994;28;20515;-76
2021/08/23 11:07:26;;;;;;;4.93;3.40;;;21.30;77.30;;;;;;5042680;28;20436;-75
2021/08/23 11:10:24;;;;;;;4.83;3.37;;;21.10;77.10;;;;;;5048344;28;20918;-75
2021/08/23 11:12:54;;;;;;;4.80;3.30;;;20.80;79.00;;;;;;5043468;28;20511;-76
2021/08/23 11:15:27;;;;;;;7.33;4.00;;;20.40;79.90;;;;;;5026886;28;20438;-76
2021/08/23 11:18:02;;;;;;;5.87;3.70;;;20.20;80.90;;;;;;5048723;28;20447;-76
2021/08/23 11:20:50;;;;;;;5.17;3.13;;;20.20;80.80;;;;;;5043000;28;20421;-76
2021/08/23 11:23:22;;;;;;;5.80;4.13;;;19.90;81.20;;;;;;5045830;28;20449;-76
2021/08/23 11:25:49;;;;;;;3.40;3.10;;;19.80;81.50;;;;;;5042313;28;20435;-76
2021/08/23 11:28:19;;;;;;;4.50;3.00;;;20.00;81.50;;;;;;5042826;28;20417;-74
2021/08/23 11:30:49;;;;;;;6.13;3.90;;;20.30;80.60;;;;;;5047142;28;20419;-74
2021/08/23 11:33:36;;;;;;;3.90;2.93;;;20.70;80.00;;;;;;5042079;28;20411;-75
2021/08/23 11:36:14;;;;;;;4.40;2.47;;;20.80;77.70;;;;;;5048524;28;20436;-76
2021/08/23 11:38:40;;;;;;;7.00;3.60;;;21.00;76.40;;;;;;5043573;28;20410;-74
2021/08/23 11:41:08;;;;;;;4.23;2.90;;;21.20;76.50;;;;;;5045719;28;20558;-75
2021/08/23 11:43:35;;;;;;;4.17;2.60;;;21.00;75.20;;;;;;5048070;28;20208;-74
2021/08/23 11:46:02;;;;;;;5.30;2.40;;;20.80;76.80;;;;;;5050982;28;20918;-74
2021/08/23 11:48:28;;;;;;;3.30;2.20;;;21.00;76.10;;;;;;5046312;28;20486;-75
2021/08/23 11:50:54;;;;;;;5.03;2.70;;;21.10;74.90;;;;;;5048232;28;20544;-75
2021/08/23 11:53:23;;;;;;;7.77;2.40;;;21.00;74.80;;;;;;5050048;28;20424;-75
2021/08/23 11:55:49;;;;;;;5.53;3.00;;;21.10;75.20;;;;;;5050908;28;20191;-75
2021/08/23 11:58:20;;;;;;;5.93;2.80;;;20.80;76.20;;;;;;5042709;28;20444;-74
2021/08/23 12:01:12;;;;;;;6.50;2.77;;;20.90;76.70;;;;;;5050074;28;20772;-74
2021/08/23 12:03:38;;;;;;;4.37;2.90;;;21.20;75.70;;;;;;5044252;28;20413;-75
2021/08/23 12:06:09;;;;;;;4.70;3.30;;;21.10;76.20;;;;;;5050869;28;20432;-75
2021/08/23 12:08:37;;;;;;;4.53;2.80;;;21.40;76.70;;;;;;5051144;28;20461;-75
2021/08/23 12:11:14;;;;;;;7.30;2.30;;;21.90;73.00;;;;;;5050683;28;20424;-75
2021/08/23 12:13:39;;;;;;;3.90;2.50;;;21.80;73.20;;;;;;5045624;28;20582;-75
2021/08/23 12:16:08;;;;;;;3.80;2.80;;;21.90;73.00;;;;;;5050838;28;20979;-75
2021/08/23 12:18:40;;;;;;;4.60;2.70;;;22.20;72.00;;;;;;5043526;28;20654;-75
2021/08/23 12:21:12;;;;;;;3.10;2.10;;;22.60;71.00;;;;;;5047218;28;20468;-74
2021/08/23 12:23:51;;;;;;;3.47;2.70;;;23.10;67.70;;;;;;5044802;28;20420;-75
2021/08/23 12:26:34;;;;;;;5.20;2.93;;;22.80;68.90;;;;;;5046606;28;20437;-76
2021/08/23 12:29:18;;;;;;;3.90;2.93;;;22.20;72.10;;;;;;5044858;28;20429;-74
2021/08/23 12:31:54;;;;;;;2.77;2.10;;;21.90;71.80;;;;;;5045006;28;20457;-74
2021/08/23 12:34:28;;;;;;;4.30;2.30;;;21.90;71.40;;;;;;5045309;28;20428;-75
2021/08/23 12:36:56;;;;;;;5.40;2.37;;;22.10;71.00;;;;;;5049174;28;20446;-75
2021/08/23 12:39:22;;;;;;;4.60;2.00;;;22.50;68.20;;;;;;5054609;28;20437;-75
2021/08/23 12:41:51;;;;;;;2.90;1.90;;;23.00;67.20;;;;;;5048647;28;20475;-75
2021/08/23 12:44:17;;;;;;;3.23;2.30;;;23.20;66.60;;;;;;5047002;28;20420;-76
2021/08/23 12:46:43;;;;;;;3.73;2.47;;;23.20;66.90;;;;;;5046862;28;20802;-75
2021/08/23 12:49:10;;;;;;;3.60;2.57;;;23.60;65.80;;;;;;5041584;28;20370;-74
2021/08/23 12:51:38;;;;;;;2.20;1.90;;;24.10;64.70;;;;;;5043586;28;20449;-75